sensor_id;sensor_type;location;lat;lon;timestamp;P1;durP1;ratioP1;P2;durP2;ratioP2
57573;SDS011;68988;49.000;21.242;2023-10-08T00:02:22;4.28;;;3.97;;
57573;SDS011;68988;49.000;21.242;2023-10-08T00:04:50;3.80;;;3.50;;
57573;SDS011;68988;49.000;21.242;2023-10-08T00:07:19;4.07;;;3.78;;
57573;SDS011;68988;49.000;21.242;2023-10-08T00:09:49;4.13;;;3.83;;
57573;SDS011;68988;49.000;21.242;2023-10-08T00:12:16;3.63;;;3.40;;
57573;SDS011;68988;49.000;21.242;2023-10-08T00:14:42;3.97;;;3.67;;
57573;SDS011;68988;49.000;21.242;2023-10-08T00:17:14;3.88;;;3.67;;
57573;SDS011;68988;49.000;21.242;2023-10-08T00:19:41;3.90;;;3.63;;
57573;SDS011;68988;49.000;21.242;2023-10-08T00:22:08;3.45;;;3.15;;
57573;SDS011;68988;49.000;21.242;2023-10-08T00:24:35;3.80;;;3.58;;
57573;SDS011;68988;49.000;21.242;2023-10-08T00:27:00;3.90;;;3.65;;
57573;SDS011;68988;49.000;21.242;2023-10-08T00:29:27;5.05;;;3.38;;
57573;SDS011;68988;49.000;21.242;2023-10-08T00:31:52;3.70;;;3.40;;
57573;SDS011;68988;49.000;21.242;2023-10-08T00:34:21;3.47;;;3.28;;
57573;SDS011;68988;49.000;21.242;2023-10-08T00:36:49;4.28;;;4.07;;
57573;SDS011;68988;49.000;21.242;2023-10-08T00:39:15;3.97;;;3.78;;
57573;SDS011;68988;49.000;21.242;2023-10-08T00:41:52;3.75;;;3.50;;
57573;SDS011;68988;49.000;21.242;2023-10-08T00:44:24;3.75;;;3.55;;
57573;SDS011;68988;49.000;21.242;2023-10-08T00:46:54;3.92;;;3.72;;
57573;SDS011;68988;49.000;21.242;2023-10-08T00:49:22;3.53;;;3.33;;
57573;SDS011;68988;49.000;21.242;2023-10-08T00:52:10;4.20;;;3.80;;
57573;SDS011;68988;49.000;21.242;2023-10-08T00:54:40;4.25;;;3.72;;
57573;SDS011;68988;49.000;21.242;2023-10-08T00:57:22;3.60;;;3.20;;
57573;SDS011;68988;49.000;21.242;2023-10-08T00:59:51;3.92;;;3.63;;
57573;SDS011;68988;49.000;21.242;2023-10-08T01:02:21;4.10;;;3.70;;
57573;SDS011;68988;49.000;21.242;2023-10-08T01:04:51;4.00;;;3.70;;
57573;SDS011;68988;49.000;21.242;2023-10-08T01:07:19;4.20;;;3.90;;
57573;SDS011;68988;49.000;21.242;2023-10-08T01:09:45;3.80;;;3.60;;
57573;SDS011;68988;49.000;21.242;2023-10-08T01:12:22;3.60;;;3.38;;
57573;SDS011;68988;49.000;21.242;2023-10-08T01:15:05;4.10;;;3.85;;
57573;SDS011;68988;49.000;21.242;2023-10-08T01:17:50;3.75;;;3.45;;
57573;SDS011;68988;49.000;21.242;2023-10-08T01:20:44;4.00;;;3.75;;
57573;SDS011;68988;49.000;21.242;2023-10-08T01:23:10;4.13;;;3.55;;
57573;SDS011;68988;49.000;21.242;2023-10-08T01:25:41;4.68;;;3.45;;
57573;SDS011;68988;49.000;21.242;2023-10-08T01:28:17;4.28;;;3.97;;
57573;SDS011;68988;49.000;21.242;2023-10-08T01:30:53;4.45;;;3.92;;
57573;SDS011;68988;49.000;21.242;2023-10-08T01:33:20;4.43;;;3.38;;
57573;SDS011;68988;49.000;21.242;2023-10-08T01:35:47;3.67;;;3.38;;
57573;SDS011;68988;49.000;21.242;2023-10-08T01:38:15;4.35;;;4.05;;
57573;SDS011;68988;49.000;21.242;2023-10-08T01:40:48;3.88;;;3.67;;
57573;SDS011;68988;49.000;21.242;2023-10-08T01:43:16;3.70;;;3.50;;
57573;SDS011;68988;49.000;21.242;2023-10-08T01:45:43;4.13;;;3.72;;
57573;SDS011;68988;49.000;21.242;2023-10-08T01:48:13;4.32;;;3.88;;
57573;SDS011;68988;49.000;21.242;2023-10-08T01:50:40;4.35;;;3.58;;
57573;SDS011;68988;49.000;21.242;2023-10-08T01:53:05;8.02;;;4.05;;
57573;SDS011;68988;49.000;21.242;2023-10-08T01:55:34;4.63;;;4.10;;
57573;SDS011;68988;49.000;21.242;2023-10-08T01:58:14;4.28;;;3.97;;
57573;SDS011;68988;49.000;21.242;2023-10-08T02:00:43;4.30;;;4.00;;
57573;SDS011;68988;49.000;21.242;2023-10-08T02:03:10;3.92;;;3.55;;
57573;SDS011;68988;49.000;21.242;2023-10-08T02:05:38;6.10;;;4.10;;
57573;SDS011;68988;49.000;21.242;2023-10-08T02:08:07;3.72;;;3.42;;
57573;SDS011;68988;49.000;21.242;2023-10-08T02:10:33;4.05;;;3.85;;
57573;SDS011;68988;49.000;21.242;2023-10-08T02:12:59;4.32;;;3.95;;
57573;SDS011;68988;49.000;21.242;2023-10-08T02:15:24;4.47;;;4.15;;
57573;SDS011;68988;49.000;21.242;2023-10-08T02:17:51;4.10;;;3.80;;
57573;SDS011;68988;49.000;21.242;2023-10-08T02:20:16;4.50;;;4.10;;
57573;SDS011;68988;49.000;21.242;2023-10-08T02:22:42;4.15;;;3.85;;
57573;SDS011;68988;49.000;21.242;2023-10-08T02:25:07;4.60;;;4.20;;
57573;SDS011;68988;49.000;21.242;2023-10-08T02:27:36;4.10;;;3.70;;
57573;SDS011;68988;49.000;21.242;2023-10-08T02:30:03;4.25;;;3.80;;
57573;SDS011;68988;49.000;21.242;2023-10-08T02:32:31;4.32;;;4.00;;
57573;SDS011;68988;49.000;21.242;2023-10-08T02:34:57;4.07;;;3.88;;
57573;SDS011;68988;49.000;21.242;2023-10-08T02:37:22;5.45;;;4.30;;
57573;SDS011;68988;49.000;21.242;2023-10-08T02:39:48;4.32;;;4.03;;
57573;SDS011;68988;49.000;21.242;2023-10-08T02:42:13;3.92;;;3.72;;
57573;SDS011;68988;49.000;21.242;2023-10-08T02:44:39;4.45;;;3.83;;
57573;SDS011;68988;49.000;21.242;2023-10-08T02:47:07;4.00;;;3.70;;
57573;SDS011;68988;49.000;21.242;2023-10-08T02:49:34;4.60;;;4.20;;
57573;SDS011;68988;49.000;21.242;2023-10-08T02:52:01;4.18;;;3.97;;
57573;SDS011;68988;49.000;21.242;2023-10-08T02:54:29;6.43;;;3.85;;
57573;SDS011;68988;49.000;21.242;2023-10-08T02:57:01;4.57;;;4.15;;
57573;SDS011;68988;49.000;21.242;2023-10-08T02:59:31;4.32;;;3.92;;
57573;SDS011;68988;49.000;21.242;2023-10-08T03:02:07;4.40;;;4.15;;
57573;SDS011;68988;49.000;21.242;2023-10-08T03:04:46;4.03;;;3.83;;
57573;SDS011;68988;49.000;21.242;2023-10-08T03:07:17;3.78;;;3.58;;
57573;SDS011;68988;49.000;21.242;2023-10-08T03:09:49;6.07;;;4.15;;
57573;SDS011;68988;49.000;21.242;2023-10-08T03:12:16;4.13;;;3.92;;
57573;SDS011;68988;49.000;21.242;2023-10-08T03:14:43;4.50;;;4.20;;
57573;SDS011;68988;49.000;21.242;2023-10-08T03:17:29;5.38;;;4.03;;
57573;SDS011;68988;49.000;21.242;2023-10-08T03:19:55;3.83;;;3.63;;
57573;SDS011;68988;49.000;21.242;2023-10-08T03:22:27;4.73;;;4.43;;
57573;SDS011;68988;49.000;21.242;2023-10-08T03:24:58;4.37;;;3.97;;
57573;SDS011;68988;49.000;21.242;2023-10-08T03:27:39;4.25;;;3.95;;
57573;SDS011;68988;49.000;21.242;2023-10-08T03:30:07;4.32;;;4.03;;
57573;SDS011;68988;49.000;21.242;2023-10-08T03:32:39;4.95;;;4.57;;
57573;SDS011;68988;49.000;21.242;2023-10-08T03:35:06;4.78;;;4.20;;
57573;SDS011;68988;49.000;21.242;2023-10-08T03:37:35;4.53;;;4.15;;
57573;SDS011;68988;49.000;21.242;2023-10-08T03:40:06;4.65;;;4.35;;
57573;SDS011;68988;49.000;21.242;2023-10-08T03:42:47;4.72;;;4.40;;
57573;SDS011;68988;49.000;21.242;2023-10-08T03:45:14;5.45;;;3.80;;
57573;SDS011;68988;49.000;21.242;2023-10-08T03:47:47;5.97;;;4.72;;
57573;SDS011;68988;49.000;21.242;2023-10-08T03:50:27;4.63;;;4.20;;
57573;SDS011;68988;49.000;21.242;2023-10-08T03:53:05;4.63;;;4.18;;
57573;SDS011;68988;49.000;21.242;2023-10-08T03:55:37;5.50;;;5.00;;
57573;SDS011;68988;49.000;21.242;2023-10-08T03:58:06;6.68;;;4.30;;
57573;SDS011;68988;49.000;21.242;2023-10-08T04:00:37;4.60;;;4.28;;
57573;SDS011;68988;49.000;21.242;2023-10-08T04:03:07;4.38;;;4.15;;
57573;SDS011;68988;49.000;21.242;2023-10-08T04:05:36;4.88;;;4.47;;
57573;SDS011;68988;49.000;21.242;2023-10-08T04:08:21;5.32;;;4.60;;
57573;SDS011;68988;49.000;21.242;2023-10-08T04:11:05;5.35;;;4.82;;
57573;SDS011;68988;49.000;21.242;2023-10-08T04:13:36;4.15;;;3.95;;
57573;SDS011;68988;49.000;21.242;2023-10-08T04:16:13;4.60;;;4.20;;
57573;SDS011;68988;49.000;21.242;2023-10-08T04:18:43;4.43;;;4.13;;
57573;SDS011;68988;49.000;21.242;2023-10-08T04:21:09;5.13;;;4.68;;
57573;SDS011;68988;49.000;21.242;2023-10-08T04:23:38;6.90;;;4.25;;
57573;SDS011;68988;49.000;21.242;2023-10-08T04:26:04;4.80;;;4.47;;
57573;SDS011;68988;49.000;21.242;2023-10-08T04:28:31;4.32;;;3.92;;
57573;SDS011;68988;49.000;21.242;2023-10-08T04:30:59;5.13;;;4.50;;
57573;SDS011;68988;49.000;21.242;2023-10-08T04:33:39;5.10;;;4.45;;
57573;SDS011;68988;49.000;21.242;2023-10-08T04:36:04;4.53;;;4.22;;
57573;SDS011;68988;49.000;21.242;2023-10-08T04:38:32;4.60;;;4.30;;
57573;SDS011;68988;49.000;21.242;2023-10-08T04:41:04;4.78;;;4.47;;
57573;SDS011;68988;49.000;21.242;2023-10-08T04:43:34;4.47;;;4.20;;
57573;SDS011;68988;49.000;21.242;2023-10-08T04:46:03;4.57;;;4.18;;
57573;SDS011;68988;49.000;21.242;2023-10-08T04:48:50;4.60;;;4.28;;
57573;SDS011;68988;49.000;21.242;2023-10-08T04:51:16;4.68;;;4.38;;
57573;SDS011;68988;49.000;21.242;2023-10-08T04:53:43;4.95;;;4.50;;
57573;SDS011;68988;49.000;21.242;2023-10-08T04:56:10;6.35;;;4.82;;
57573;SDS011;68988;49.000;21.242;2023-10-08T04:58:45;5.35;;;4.85;;
57573;SDS011;68988;49.000;21.242;2023-10-08T05:01:12;4.68;;;4.38;;
57573;SDS011;68988;49.000;21.242;2023-10-08T05:03:57;5.22;;;4.80;;
57573;SDS011;68988;49.000;21.242;2023-10-08T05:06:26;6.07;;;4.60;;
57573;SDS011;68988;49.000;21.242;2023-10-08T05:09:09;5.30;;;4.50;;
57573;SDS011;68988;49.000;21.242;2023-10-08T05:11:45;4.57;;;4.28;;
57573;SDS011;68988;49.000;21.242;2023-10-08T05:14:31;4.53;;;4.15;;
57573;SDS011;68988;49.000;21.242;2023-10-08T05:16:58;4.28;;;3.90;;
57573;SDS011;68988;49.000;21.242;2023-10-08T05:19:40;3.85;;;3.65;;
57573;SDS011;68988;49.000;21.242;2023-10-08T05:22:07;4.53;;;3.58;;
57573;SDS011;68988;49.000;21.242;2023-10-08T05:24:46;5.25;;;3.70;;
57573;SDS011;68988;49.000;21.242;2023-10-08T05:27:33;3.60;;;3.15;;
57573;SDS011;68988;49.000;21.242;2023-10-08T05:30:15;4.00;;;2.97;;
57573;SDS011;68988;49.000;21.242;2023-10-08T05:32:45;2.97;;;2.78;;
57573;SDS011;68988;49.000;21.242;2023-10-08T05:35:31;3.90;;;2.80;;
57573;SDS011;68988;49.000;21.242;2023-10-08T05:38:14;2.60;;;2.50;;
57573;SDS011;68988;49.000;21.242;2023-10-08T05:40:47;2.10;;;2.00;;
57573;SDS011;68988;49.000;21.242;2023-10-08T05:43:39;3.03;;;2.22;;
57573;SDS011;68988;49.000;21.242;2023-10-08T05:46:04;2.85;;;2.10;;
57573;SDS011;68988;49.000;21.242;2023-10-08T05:49:03;1.90;;;1.80;;
57573;SDS011;68988;49.000;21.242;2023-10-08T05:51:28;1.70;;;1.60;;
57573;SDS011;68988;49.000;21.242;2023-10-08T05:54:30;1.80;;;1.70;;
57573;SDS011;68988;49.000;21.242;2023-10-08T05:57:00;2.20;;;2.00;;
57573;SDS011;68988;49.000;21.242;2023-10-08T05:59:39;2.00;;;1.80;;
57573;SDS011;68988;49.000;21.242;2023-10-08T06:02:39;1.63;;;1.52;;
57573;SDS011;68988;49.000;21.242;2023-10-08T06:05:10;1.75;;;1.65;;
57573;SDS011;68988;49.000;21.242;2023-10-08T06:07:39;2.95;;;1.55;;
57573;SDS011;68988;49.000;21.242;2023-10-08T06:10:36;1.33;;;1.23;;
57573;SDS011;68988;49.000;21.242;2023-10-08T06:13:05;1.35;;;1.25;;
57573;SDS011;68988;49.000;21.242;2023-10-08T06:18:16;1.40;;;1.30;;
57573;SDS011;68988;49.000;21.242;2023-10-08T06:20:43;2.72;;;1.08;;
57573;SDS011;68988;49.000;21.242;2023-10-08T06:23:10;1.25;;;1.15;;
57573;SDS011;68988;49.000;21.242;2023-10-08T06:25:37;1.40;;;1.30;;
57573;SDS011;68988;49.000;21.242;2023-10-08T06:28:12;1.00;;;1.00;;
57573;SDS011;68988;49.000;21.242;2023-10-08T06:30:40;1.17;;;1.08;;
57573;SDS011;68988;49.000;21.242;2023-10-08T06:33:06;1.35;;;1.25;;
57573;SDS011;68988;49.000;21.242;2023-10-08T06:35:32;1.20;;;1.08;;
57573;SDS011;68988;49.000;21.242;2023-10-08T06:37:58;1.08;;;1.08;;
57573;SDS011;68988;49.000;21.242;2023-10-08T06:40:25;0.93;;;0.93;;
57573;SDS011;68988;49.000;21.242;2023-10-08T06:43:03;0.95;;;0.90;;
57573;SDS011;68988;49.000;21.242;2023-10-08T06:45:49;2.20;;;1.00;;
57573;SDS011;68988;49.000;21.242;2023-10-08T06:48:17;1.17;;;1.17;;
57573;SDS011;68988;49.000;21.242;2023-10-08T06:50:47;0.80;;;0.80;;
57573;SDS011;68988;49.000;21.242;2023-10-08T06:53:13;1.25;;;0.95;;
57573;SDS011;68988;49.000;21.242;2023-10-08T06:55:40;0.88;;;0.88;;
57573;SDS011;68988;49.000;21.242;2023-10-08T06:58:06;0.82;;;0.82;;
57573;SDS011;68988;49.000;21.242;2023-10-08T07:00:37;1.10;;;1.00;;
57573;SDS011;68988;49.000;21.242;2023-10-08T07:03:11;0.98;;;0.98;;
57573;SDS011;68988;49.000;21.242;2023-10-08T07:05:49;0.70;;;0.70;;
57573;SDS011;68988;49.000;21.242;2023-10-08T07:08:25;0.80;;;0.80;;
57573;SDS011;68988;49.000;21.242;2023-10-08T07:10:52;0.70;;;0.70;;
57573;SDS011;68988;49.000;21.242;2023-10-08T07:13:21;0.60;;;0.60;;
57573;SDS011;68988;49.000;21.242;2023-10-08T07:15:49;1.52;;;0.90;;
57573;SDS011;68988;49.000;21.242;2023-10-08T07:18:15;0.70;;;0.70;;
57573;SDS011;68988;49.000;21.242;2023-10-08T07:20:49;3.55;;;0.73;;
57573;SDS011;68988;49.000;21.242;2023-10-08T07:23:19;0.70;;;0.70;;
57573;SDS011;68988;49.000;21.242;2023-10-08T07:25:56;0.90;;;0.90;;
57573;SDS011;68988;49.000;21.242;2023-10-08T07:28:39;0.55;;;0.55;;
57573;SDS011;68988;49.000;21.242;2023-10-08T07:31:12;1.00;;;0.70;;
57573;SDS011;68988;49.000;21.242;2023-10-08T07:33:40;0.77;;;0.77;;
57573;SDS011;68988;49.000;21.242;2023-10-08T07:36:08;0.70;;;0.70;;
57573;SDS011;68988;49.000;21.242;2023-10-08T07:38:39;0.75;;;0.70;;
57573;SDS011;68988;49.000;21.242;2023-10-08T07:41:10;0.50;;;0.50;;
57573;SDS011;68988;49.000;21.242;2023-10-08T07:43:38;0.70;;;0.70;;
57573;SDS011;68988;49.000;21.242;2023-10-08T07:46:04;0.60;;;0.60;;
57573;SDS011;68988;49.000;21.242;2023-10-08T07:48:30;0.50;;;0.50;;
57573;SDS011;68988;49.000;21.242;2023-10-08T07:50:56;0.63;;;0.60;;
57573;SDS011;68988;49.000;21.242;2023-10-08T07:53:23;0.80;;;0.80;;
57573;SDS011;68988;49.000;21.242;2023-10-08T07:55:49;0.80;;;0.80;;
57573;SDS011;68988;49.000;21.242;2023-10-08T07:58:15;0.65;;;0.65;;
57573;SDS011;68988;49.000;21.242;2023-10-08T08:00:41;0.70;;;0.70;;
57573;SDS011;68988;49.000;21.242;2023-10-08T08:03:07;0.65;;;0.65;;
57573;SDS011;68988;49.000;21.242;2023-10-08T08:05:32;0.60;;;0.60;;
57573;SDS011;68988;49.000;21.242;2023-10-08T08:07:58;1.35;;;0.70;;
57573;SDS011;68988;49.000;21.242;2023-10-08T08:10:30;0.90;;;0.90;;
57573;SDS011;68988;49.000;21.242;2023-10-08T08:13:02;0.70;;;0.70;;
57573;SDS011;68988;49.000;21.242;2023-10-08T08:15:33;1.38;;;0.70;;
57573;SDS011;68988;49.000;21.242;2023-10-08T08:18:01;0.70;;;0.70;;
57573;SDS011;68988;49.000;21.242;2023-10-08T08:20:30;0.52;;;0.52;;
57573;SDS011;68988;49.000;21.242;2023-10-08T08:23:08;0.70;;;0.70;;
57573;SDS011;68988;49.000;21.242;2023-10-08T08:25:41;0.73;;;0.73;;
57573;SDS011;68988;49.000;21.242;2023-10-08T08:28:25;0.50;;;0.50;;
57573;SDS011;68988;49.000;21.242;2023-10-08T08:30:53;0.80;;;0.80;;
57573;SDS011;68988;49.000;21.242;2023-10-08T08:33:20;0.63;;;0.63;;
57573;SDS011;68988;49.000;21.242;2023-10-08T08:35:59;0.73;;;0.73;;
57573;SDS011;68988;49.000;21.242;2023-10-08T08:38:26;0.70;;;0.70;;
57573;SDS011;68988;49.000;21.242;2023-10-08T08:41:01;0.80;;;0.80;;
57573;SDS011;68988;49.000;21.242;2023-10-08T08:43:31;0.90;;;0.90;;
57573;SDS011;68988;49.000;21.242;2023-10-08T08:46:02;0.82;;;0.75;;
57573;SDS011;68988;49.000;21.242;2023-10-08T08:48:32;0.98;;;0.82;;
57573;SDS011;68988;49.000;21.242;2023-10-08T08:50:59;1.05;;;0.60;;
57573;SDS011;68988;49.000;21.242;2023-10-08T08:53:25;0.85;;;0.70;;
57573;SDS011;68988;49.000;21.242;2023-10-08T08:55:51;0.93;;;0.93;;
57573;SDS011;68988;49.000;21.242;2023-10-08T08:58:20;0.80;;;0.80;;
57573;SDS011;68988;49.000;21.242;2023-10-08T09:00:47;0.90;;;0.90;;
57573;SDS011;68988;49.000;21.242;2023-10-08T09:03:12;0.60;;;0.60;;
57573;SDS011;68988;49.000;21.242;2023-10-08T09:05:38;0.90;;;0.90;;
57573;SDS011;68988;49.000;21.242;2023-10-08T09:08:06;0.68;;;0.68;;
57573;SDS011;68988;49.000;21.242;2023-10-08T09:10:33;0.80;;;0.80;;
57573;SDS011;68988;49.000;21.242;2023-10-08T09:13:03;0.80;;;0.80;;
57573;SDS011;68988;49.000;21.242;2023-10-08T09:15:34;0.90;;;0.90;;
57573;SDS011;68988;49.000;21.242;2023-10-08T09:18:01;0.75;;;0.75;;
57573;SDS011;68988;49.000;21.242;2023-10-08T09:20:30;1.00;;;0.90;;
57573;SDS011;68988;49.000;21.242;2023-10-08T09:25:32;1.10;;;1.00;;
57573;SDS011;68988;49.000;21.242;2023-10-08T09:27:58;0.70;;;0.70;;
57573;SDS011;68988;49.000;21.242;2023-10-08T09:30:24;0.75;;;0.75;;
57573;SDS011;68988;49.000;21.242;2023-10-08T09:32:51;1.17;;;0.90;;
57573;SDS011;68988;49.000;21.242;2023-10-08T09:35:17;0.88;;;0.88;;
57573;SDS011;68988;49.000;21.242;2023-10-08T09:37:44;0.90;;;0.65;;
57573;SDS011;68988;49.000;21.242;2023-10-08T09:40:10;0.90;;;0.90;;
57573;SDS011;68988;49.000;21.242;2023-10-08T09:42:39;1.08;;;0.85;;
57573;SDS011;68988;49.000;21.242;2023-10-08T09:45:07;0.88;;;0.88;;
57573;SDS011;68988;49.000;21.242;2023-10-08T09:47:36;0.63;;;0.63;;
57573;SDS011;68988;49.000;21.242;2023-10-08T09:50:04;0.77;;;0.77;;
57573;SDS011;68988;49.000;21.242;2023-10-08T09:52:45;0.90;;;0.90;;
57573;SDS011;68988;49.000;21.242;2023-10-08T09:55:33;0.77;;;0.77;;
57573;SDS011;68988;49.000;21.242;2023-10-08T09:57:58;1.00;;;1.00;;
57573;SDS011;68988;49.000;21.242;2023-10-08T10:00:24;0.80;;;0.80;;
57573;SDS011;68988;49.000;21.242;2023-10-08T10:02:57;0.60;;;0.60;;
57573;SDS011;68988;49.000;21.242;2023-10-08T10:05:27;0.75;;;0.75;;
57573;SDS011;68988;49.000;21.242;2023-10-08T10:07:54;0.68;;;0.68;;
57573;SDS011;68988;49.000;21.242;2023-10-08T10:10:25;0.77;;;0.77;;
57573;SDS011;68988;49.000;21.242;2023-10-08T10:12:51;0.80;;;0.80;;
57573;SDS011;68988;49.000;21.242;2023-10-08T10:15:19;0.82;;;0.73;;
57573;SDS011;68988;49.000;21.242;2023-10-08T10:17:47;0.70;;;0.70;;
57573;SDS011;68988;49.000;21.242;2023-10-08T10:20:14;0.60;;;0.60;;
57573;SDS011;68988;49.000;21.242;2023-10-08T10:22:39;0.68;;;0.68;;
57573;SDS011;68988;49.000;21.242;2023-10-08T10:25:07;0.65;;;0.65;;
57573;SDS011;68988;49.000;21.242;2023-10-08T10:28:27;0.75;;;0.75;;
57573;SDS011;68988;49.000;21.242;2023-10-08T10:30:33;2.70;;;0.80;;
57573;SDS011;68988;49.000;21.242;2023-10-08T10:33:02;2.17;;;0.77;;
57573;SDS011;68988;49.000;21.242;2023-10-08T10:35:30;0.68;;;0.68;;
57573;SDS011;68988;49.000;21.242;2023-10-08T10:37:57;1.98;;;0.70;;
57573;SDS011;68988;49.000;21.242;2023-10-08T10:40:28;0.70;;;0.70;;
57573;SDS011;68988;49.000;21.242;2023-10-08T10:42:56;0.80;;;0.80;;
57573;SDS011;68988;49.000;21.242;2023-10-08T10:45:22;0.77;;;0.63;;
57573;SDS011;68988;49.000;21.242;2023-10-08T10:48:07;0.88;;;0.88;;
57573;SDS011;68988;49.000;21.242;2023-10-08T10:50:39;0.60;;;0.60;;
57573;SDS011;68988;49.000;21.242;2023-10-08T10:53:24;0.68;;;0.68;;
57573;SDS011;68988;49.000;21.242;2023-10-08T10:55:52;2.83;;;0.65;;
57573;SDS011;68988;49.000;21.242;2023-10-08T10:58:34;1.33;;;0.93;;
57573;SDS011;68988;49.000;21.242;2023-10-08T11:01:06;4.17;;;1.00;;
57573;SDS011;68988;49.000;21.242;2023-10-08T11:03:53;4.38;;;1.00;;
57573;SDS011;68988;49.000;21.242;2023-10-08T11:06:18;5.47;;;0.90;;
57573;SDS011;68988;49.000;21.242;2023-10-08T11:08:51;9.25;;;1.00;;
57573;SDS011;68988;49.000;21.242;2023-10-08T11:11:18;5.00;;;1.10;;
57573;SDS011;68988;49.000;21.242;2023-10-08T11:13:44;5.63;;;0.85;;
57573;SDS011;68988;49.000;21.242;2023-10-08T11:16:17;2.92;;;0.75;;
57573;SDS011;68988;49.000;21.242;2023-10-08T11:18:45;2.80;;;0.80;;
57573;SDS011;68988;49.000;21.242;2023-10-08T11:21:15;1.45;;;0.90;;
57573;SDS011;68988;49.000;21.242;2023-10-08T11:23:45;1.77;;;0.90;;
57573;SDS011;68988;49.000;21.242;2023-10-08T11:26:17;2.58;;;0.73;;
57573;SDS011;68988;49.000;21.242;2023-10-08T11:28:44;1.10;;;1.00;;
57573;SDS011;68988;49.000;21.242;2023-10-08T11:31:17;0.60;;;0.60;;
57573;SDS011;68988;49.000;21.242;2023-10-08T11:33:46;1.55;;;0.70;;
57573;SDS011;68988;49.000;21.242;2023-10-08T11:36:19;1.00;;;0.88;;
57573;SDS011;68988;49.000;21.242;2023-10-08T11:38:45;1.75;;;0.60;;
57573;SDS011;68988;49.000;21.242;2023-10-08T11:41:16;0.80;;;0.80;;
57573;SDS011;68988;49.000;21.242;2023-10-08T11:46:28;0.88;;;0.70;;
57573;SDS011;68988;49.000;21.242;2023-10-08T11:49:03;0.73;;;0.60;;
57573;SDS011;68988;49.000;21.242;2023-10-08T11:51:32;4.05;;;0.70;;
57573;SDS011;68988;49.000;21.242;2023-10-08T11:53:59;1.60;;;0.88;;
57573;SDS011;68988;49.000;21.242;2023-10-08T11:56:29;0.93;;;0.77;;
57573;SDS011;68988;49.000;21.242;2023-10-08T11:58:55;1.75;;;0.85;;
57573;SDS011;68988;49.000;21.242;2023-10-08T12:01:22;1.88;;;0.70;;
57573;SDS011;68988;49.000;21.242;2023-10-08T12:03:52;0.55;;;0.50;;
57573;SDS011;68988;49.000;21.242;2023-10-08T12:06:18;0.95;;;0.60;;
57573;SDS011;68988;49.000;21.242;2023-10-08T12:08:47;0.95;;;0.80;;
57573;SDS011;68988;49.000;21.242;2023-10-08T12:11:18;1.42;;;0.70;;
57573;SDS011;68988;49.000;21.242;2023-10-08T12:13:44;0.82;;;0.82;;
57573;SDS011;68988;49.000;21.242;2023-10-08T12:16:10;0.77;;;0.68;;
57573;SDS011;68988;49.000;21.242;2023-10-08T12:18:55;0.60;;;0.60;;
57573;SDS011;68988;49.000;21.242;2023-10-08T12:21:25;1.05;;;0.77;;
57573;SDS011;68988;49.000;21.242;2023-10-08T12:23:51;1.08;;;0.75;;
57573;SDS011;68988;49.000;21.242;2023-10-08T12:26:17;1.25;;;1.10;;
57573;SDS011;68988;49.000;21.242;2023-10-08T12:28:46;3.63;;;0.80;;
57573;SDS011;68988;49.000;21.242;2023-10-08T12:31:16;1.05;;;0.77;;
57573;SDS011;68988;49.000;21.242;2023-10-08T12:33:50;1.45;;;0.70;;
57573;SDS011;68988;49.000;21.242;2023-10-08T12:36:21;0.68;;;0.68;;
57573;SDS011;68988;49.000;21.242;2023-10-08T12:38:51;0.80;;;0.80;;
57573;SDS011;68988;49.000;21.242;2023-10-08T12:41:22;3.38;;;1.10;;
57573;SDS011;68988;49.000;21.242;2023-10-08T12:43:50;0.95;;;0.85;;
57573;SDS011;68988;49.000;21.242;2023-10-08T12:46:18;1.88;;;0.90;;
57573;SDS011;68988;49.000;21.242;2023-10-08T12:48:48;1.58;;;0.93;;
57573;SDS011;68988;49.000;21.242;2023-10-08T12:51:17;0.90;;;0.75;;
57573;SDS011;68988;49.000;21.242;2023-10-08T12:53:43;1.20;;;1.00;;
57573;SDS011;68988;49.000;21.242;2023-10-08T12:56:28;1.60;;;1.00;;
57573;SDS011;68988;49.000;21.242;2023-10-08T12:59:00;1.35;;;0.93;;
57573;SDS011;68988;49.000;21.242;2023-10-08T13:01:30;3.33;;;0.93;;
57573;SDS011;68988;49.000;21.242;2023-10-08T13:03:55;0.90;;;0.90;;
57573;SDS011;68988;49.000;21.242;2023-10-08T13:06:32;2.35;;;0.80;;
57573;SDS011;68988;49.000;21.242;2023-10-08T13:09:04;2.85;;;1.05;;
57573;SDS011;68988;49.000;21.242;2023-10-08T13:11:37;2.05;;;0.98;;
57573;SDS011;68988;49.000;21.242;2023-10-08T13:14:04;0.90;;;0.80;;
57573;SDS011;68988;49.000;21.242;2023-10-08T13:16:30;1.00;;;0.90;;
57573;SDS011;68988;49.000;21.242;2023-10-08T13:19:02;0.80;;;0.80;;
57573;SDS011;68988;49.000;21.242;2023-10-08T13:21:28;1.23;;;1.13;;
57573;SDS011;68988;49.000;21.242;2023-10-08T13:23:54;1.40;;;0.70;;
57573;SDS011;68988;49.000;21.242;2023-10-08T13:26:22;1.17;;;0.90;;
57573;SDS011;68988;49.000;21.242;2023-10-08T13:28:49;0.80;;;0.80;;
57573;SDS011;68988;49.000;21.242;2023-10-08T13:31:15;1.08;;;1.00;;
57573;SDS011;68988;49.000;21.242;2023-10-08T13:33:42;1.27;;;0.90;;
57573;SDS011;68988;49.000;21.242;2023-10-08T13:36:10;0.77;;;0.77;;
57573;SDS011;68988;49.000;21.242;2023-10-08T13:38:38;0.80;;;0.77;;
57573;SDS011;68988;49.000;21.242;2023-10-08T13:41:06;0.95;;;0.70;;
57573;SDS011;68988;49.000;21.242;2023-10-08T13:43:40;0.88;;;0.88;;
57573;SDS011;68988;49.000;21.242;2023-10-08T13:46:18;0.82;;;0.82;;
57573;SDS011;68988;49.000;21.242;2023-10-08T13:48:45;1.05;;;0.73;;
57573;SDS011;68988;49.000;21.242;2023-10-08T13:51:13;0.93;;;0.70;;
57573;SDS011;68988;49.000;21.242;2023-10-08T13:53:40;1.13;;;1.05;;
57573;SDS011;68988;49.000;21.242;2023-10-08T13:56:10;0.98;;;0.60;;
57573;SDS011;68988;49.000;21.242;2023-10-08T13:58:37;2.47;;;0.82;;
57573;SDS011;68988;49.000;21.242;2023-10-08T14:01:11;1.88;;;0.98;;
57573;SDS011;68988;49.000;21.242;2023-10-08T14:03:49;1.75;;;0.85;;
57573;SDS011;68988;49.000;21.242;2023-10-08T14:06:18;0.65;;;0.65;;
57573;SDS011;68988;49.000;21.242;2023-10-08T14:08:45;0.82;;;0.82;;
57573;SDS011;68988;49.000;21.242;2023-10-08T14:11:19;1.60;;;0.88;;
57573;SDS011;68988;49.000;21.242;2023-10-08T14:13:51;1.75;;;0.90;;
57573;SDS011;68988;49.000;21.242;2023-10-08T14:16:17;2.03;;;1.00;;
57573;SDS011;68988;49.000;21.242;2023-10-08T14:18:48;0.85;;;0.85;;
57573;SDS011;68988;49.000;21.242;2023-10-08T14:21:18;0.93;;;0.88;;
57573;SDS011;68988;49.000;21.242;2023-10-08T14:23:48;0.93;;;0.70;;
57573;SDS011;68988;49.000;21.242;2023-10-08T14:26:14;0.80;;;0.80;;
57573;SDS011;68988;49.000;21.242;2023-10-08T14:28:40;1.17;;;0.90;;
57573;SDS011;68988;49.000;21.242;2023-10-08T14:31:08;1.25;;;1.02;;
57573;SDS011;68988;49.000;21.242;2023-10-08T14:33:33;0.82;;;0.70;;
57573;SDS011;68988;49.000;21.242;2023-10-08T14:36:10;0.90;;;0.80;;
57573;SDS011;68988;49.000;21.242;2023-10-08T14:38:54;0.70;;;0.70;;
57573;SDS011;68988;49.000;21.242;2023-10-08T14:41:38;1.48;;;0.73;;
57573;SDS011;68988;49.000;21.242;2023-10-08T14:44:22;1.08;;;1.00;;
57573;SDS011;68988;49.000;21.242;2023-10-08T14:46:48;1.40;;;0.73;;
57573;SDS011;68988;49.000;21.242;2023-10-08T14:49:15;1.02;;;0.90;;
57573;SDS011;68988;49.000;21.242;2023-10-08T14:51:41;0.80;;;0.80;;
57573;SDS011;68988;49.000;21.242;2023-10-08T14:54:08;0.80;;;0.80;;
57573;SDS011;68988;49.000;21.242;2023-10-08T14:56:34;0.68;;;0.68;;
57573;SDS011;68988;49.000;21.242;2023-10-08T14:59:02;0.80;;;0.80;;
57573;SDS011;68988;49.000;21.242;2023-10-08T15:01:28;2.28;;;0.82;;
57573;SDS011;68988;49.000;21.242;2023-10-08T15:03:54;1.00;;;0.90;;